ftp/pub/mcmurdo/arrivalheights/2008/March/080308.txt

Download

3/8/08
Time         Wind Dir   Wind Spd  Wind Gust     Hum In   Humidity    Temp In       Temp  Raw Barom   Tot Rain
                    °        kts        kts          %          %         °C         °C         mb         mm
0:00               37         14         15         32        100       20.1      -13.1     969.94       0.00
0:20               43          8         13         33        100       20.3      -13.1     970.07       0.00
0:40               42          9         12         25        100       20.6      -12.6     969.94       0.00
1:00               40         10         12         26        100       19.8      -12.6     970.17       0.00
1:20               43         11         14         30        100       19.9      -12.6     970.27       0.00
1:40               42         13         14         32        100       20.1      -12.8     970.14       0.00
2:00               48         11         12         27        100       20.5      -12.8     970.17       0.00
2:20               50          8         10         22        100       20.6      -12.7     970.17       0.00
2:40               51          6          8         27        100       19.8      -13.3     970.27       0.00
3:00               51          9          9         31        100       19.9      -13.0     970.31       0.00
3:20               61          9         10         33        100       20.1      -14.2     970.24       0.00
3:40               63          9         10         27        100       20.6      -14.6     970.44       0.00
4:00               55          8         10         22        100       20.1      -14.8     970.34       0.00
4:20               49         15         17         28        100       19.8      -13.8     970.27       0.00
4:40               49         16         16         30        100       19.8      -13.4     970.27       0.00
5:00               51         10         15         32        100       19.9      -13.1     970.55       0.00
5:20               51         10         13         32        100       20.1      -13.8     970.68       0.00
5:40               45         12         16         25        100       20.4      -13.8     970.61       0.00
6:00               43         18         18         22        100       20.7      -14.0     970.58       0.00
6:20               41         15         19         28        100       20.7      -14.2     970.88       0.00
6:40               48         15         19         30        100       20.8      -14.2     970.85       0.00
7:00               36         13         17         31        100       20.8      -14.3     971.09       0.00
7:20               46         15         17         32        100       20.8      -14.2     970.95       0.00
7:40               46         14         16         23        100       20.6      -14.2     970.75       0.00
8:00               49         15         15         27        100       19.7      -14.1     971.05       0.00
8:20               49         12         14         30        100       19.7      -13.9     971.02       0.00
8:40               47          9         16         32        100       19.8      -14.1     971.22       0.00
9:00               48         10         14         28        100       20.1      -13.8     971.26       0.00
9:20               54          8         10         24        100       20.4      -13.2     971.22       0.00
9:40               54          7          9         25        100       20.7      -13.4     971.36       0.00
10:00              54          7         10         29        100       20.7      -12.9     971.39       0.00
10:20              48          9         11         31        100       20.8      -12.7     971.43       0.00
10:40              52          7         10         30        100       20.9      -12.6     971.39       0.00
11:00              55          5          8         22        100       19.9      -12.3     971.60       0.00
11:20              51          5          8         30        100       19.8      -12.8     971.66       0.00
11:40              38         10         11         32        100       19.9      -13.2     971.66       0.00
12:00              45         15         16         26        100       20.3      -13.7     971.60       0.00
12:20              35         13         17         23        100       20.7      -14.3     971.63       0.00
12:40              30         15         16         23        100       19.9      -14.0     971.70       0.00
13:00              38         13         15         29        100       19.8      -14.0     971.63       0.00
13:20              49          5         14         31        100       20.0      -13.9     971.70       0.00
13:40              43         12         17         31        100       20.3      -13.9     971.46       0.00
14:00              32         11         15         25        100       20.7      -14.0     971.53       0.00
14:20              24         10         20         23        100       19.9      -14.3     971.53       0.00
14:40              36         22         24         28        100       19.7      -15.1     971.22       0.00
15:00              29         15         25         31        100       19.8      -15.4     971.26       0.00
15:20              38         17         24         31        100       20.0      -15.7     971.16       0.00
15:40              40         21         23         32        100       20.1      -15.8     970.92       0.00
16:00              34         22         24         24        100       20.4      -15.7     970.99       0.00
16:20              35         21         26         24        100       20.6      -15.7     970.99       0.00
16:40              43         17         24         28        100       20.6      -15.8     970.95       0.00
17:00              41         17         23         29        100       20.6      -16.0     970.82       0.00
17:20              48         20         22         30        100       20.6      -16.0     970.85       0.00
17:40              42         21         22         31        100       20.7      -15.9     970.78       0.00
18:00              32         15         20         32        100       20.7      -15.8     970.78       0.00
18:20              40         20         23         26        100       20.9      -15.8     970.65       0.00
18:40              38         16         23         21        100       20.2      -15.8     970.68       0.00
19:00              37         19         23         27        100       19.7      -15.8     970.61       0.00
19:20              39         19         24         30        100       19.7      -15.8     970.44       0.00
19:40              41         17         18         31        100       19.8      -15.7     970.55       0.00
20:00              36         17         20         32        100       19.8      -15.7     970.41       0.00
20:20              42         17         23         24        100       20.2      -15.7     970.51       0.00
20:40              36         19         23         23        100       20.3      -15.6     970.41       0.00
21:00              49         15         22         28        100       20.3      -15.6     970.27       0.00
21:20              50         15         20         30        100       20.3      -15.6     970.17       0.00
21:40              47         15         17         31        100       20.3      -15.4     970.31       0.00
22:00              48         16         17         32        100       20.3      -15.7     970.34       0.00
22:20              37         18         18         26        100       20.6      -15.4     970.44       0.00
22:40              33         16         17         23        100       20.8      -15.7     970.27       0.00
23:00              42         14         17         23        100       19.8      -15.6     970.27       0.00
23:20              28         15         20         28        100       19.7      -15.2     970.17       0.00
23:40              25         10         13         31        100       19.7      -14.3     970.27       0.00